sensor_id;sensor_type;location;lat;lon;timestamp;P1;durP1;ratioP1;P2;durP2;ratioP2
20758;SDS011;10539;53.686;9.158;2023-03-01T00:02:06;21.10;;;9.90;;
20758;SDS011;10539;53.686;9.158;2023-03-01T00:04:32;23.70;;;10.43;;
20758;SDS011;10539;53.686;9.158;2023-03-01T00:06:58;22.80;;;10.70;;
20758;SDS011;10539;53.686;9.158;2023-03-01T00:09:23;20.83;;;9.87;;
20758;SDS011;10539;53.686;9.158;2023-03-01T00:11:49;25.03;;;10.03;;
20758;SDS011;10539;53.686;9.158;2023-03-01T00:14:15;23.43;;;10.07;;
20758;SDS011;10539;53.686;9.158;2023-03-01T00:16:44;22.67;;;10.60;;
20758;SDS011;10539;53.686;9.158;2023-03-01T00:19:12;25.37;;;10.60;;
20758;SDS011;10539;53.686;9.158;2023-03-01T00:21:39;21.00;;;9.63;;
20758;SDS011;10539;53.686;9.158;2023-03-01T00:24:05;21.60;;;9.60;;
20758;SDS011;10539;53.686;9.158;2023-03-01T00:26:31;23.53;;;10.03;;
20758;SDS011;10539;53.686;9.158;2023-03-01T00:28:57;22.07;;;9.43;;
20758;SDS011;10539;53.686;9.158;2023-03-01T00:31:25;26.40;;;10.00;;
20758;SDS011;10539;53.686;9.158;2023-03-01T00:33:53;22.60;;;10.57;;
20758;SDS011;10539;53.686;9.158;2023-03-01T00:36:23;24.23;;;9.67;;
20758;SDS011;10539;53.686;9.158;2023-03-01T00:38:57;27.00;;;10.20;;
20758;SDS011;10539;53.686;9.158;2023-03-01T00:41:23;28.43;;;11.10;;
20758;SDS011;10539;53.686;9.158;2023-03-01T00:43:51;25.30;;;11.20;;
20758;SDS011;10539;53.686;9.158;2023-03-01T00:46:18;31.00;;;12.13;;
20758;SDS011;10539;53.686;9.158;2023-03-01T00:48:46;26.77;;;11.13;;
20758;SDS011;10539;53.686;9.158;2023-03-01T00:51:14;31.70;;;11.63;;
20758;SDS011;10539;53.686;9.158;2023-03-01T00:53:41;24.70;;;10.73;;
20758;SDS011;10539;53.686;9.158;2023-03-01T00:56:08;21.97;;;9.87;;
20758;SDS011;10539;53.686;9.158;2023-03-01T00:58:36;22.80;;;9.63;;
20758;SDS011;10539;53.686;9.158;2023-03-01T01:01:12;23.20;;;9.90;;
20758;SDS011;10539;53.686;9.158;2023-03-01T01:03:47;22.23;;;10.00;;
20758;SDS011;10539;53.686;9.158;2023-03-01T01:06:21;23.70;;;9.83;;
20758;SDS011;10539;53.686;9.158;2023-03-01T01:08:49;24.87;;;10.10;;
20758;SDS011;10539;53.686;9.158;2023-03-01T01:11:15;24.53;;;10.73;;
20758;SDS011;10539;53.686;9.158;2023-03-01T01:13:43;25.93;;;10.63;;
20758;SDS011;10539;53.686;9.158;2023-03-01T01:16:11;25.67;;;10.20;;
20758;SDS011;10539;53.686;9.158;2023-03-01T01:18:37;28.60;;;10.87;;
20758;SDS011;10539;53.686;9.158;2023-03-01T01:21:08;21.40;;;10.40;;
20758;SDS011;10539;53.686;9.158;2023-03-01T01:23:38;21.73;;;9.73;;
20758;SDS011;10539;53.686;9.158;2023-03-01T01:26:09;19.70;;;9.50;;
20758;SDS011;10539;53.686;9.158;2023-03-01T01:28:36;22.67;;;10.23;;
20758;SDS011;10539;53.686;9.158;2023-03-01T01:31:03;28.53;;;10.90;;
20758;SDS011;10539;53.686;9.158;2023-03-01T01:33:29;26.40;;;10.67;;
20758;SDS011;10539;53.686;9.158;2023-03-01T01:35:55;26.17;;;11.40;;
20758;SDS011;10539;53.686;9.158;2023-03-01T01:38:22;27.57;;;10.60;;
20758;SDS011;10539;53.686;9.158;2023-03-01T01:40:49;22.87;;;9.67;;
20758;SDS011;10539;53.686;9.158;2023-03-01T01:43:47;20.67;;;9.47;;
20758;SDS011;10539;53.686;9.158;2023-03-01T01:46:33;27.07;;;10.30;;
20758;SDS011;10539;53.686;9.158;2023-03-01T01:49:05;26.70;;;10.20;;
20758;SDS011;10539;53.686;9.158;2023-03-01T01:51:37;20.33;;;9.40;;
20758;SDS011;10539;53.686;9.158;2023-03-01T01:54:11;25.33;;;10.90;;
20758;SDS011;10539;53.686;9.158;2023-03-01T01:56:49;21.50;;;8.97;;
20758;SDS011;10539;53.686;9.158;2023-03-01T01:59:26;21.10;;;10.13;;
20758;SDS011;10539;53.686;9.158;2023-03-01T02:01:55;25.00;;;10.53;;
20758;SDS011;10539;53.686;9.158;2023-03-01T02:04:24;25.00;;;10.37;;
20758;SDS011;10539;53.686;9.158;2023-03-01T02:06:58;26.47;;;9.57;;
20758;SDS011;10539;53.686;9.158;2023-03-01T02:09:25;20.77;;;9.43;;
20758;SDS011;10539;53.686;9.158;2023-03-01T02:11:52;22.20;;;9.27;;
20758;SDS011;10539;53.686;9.158;2023-03-01T02:14:19;20.67;;;8.50;;
20758;SDS011;10539;53.686;9.158;2023-03-01T02:16:45;19.23;;;9.07;;
20758;SDS011;10539;53.686;9.158;2023-03-01T02:19:21;21.47;;;8.63;;
20758;SDS011;10539;53.686;9.158;2023-03-01T02:22:25;21.00;;;8.70;;
20758;SDS011;10539;53.686;9.158;2023-03-01T02:31:05;26.47;;;11.20;;
20758;SDS011;10539;53.686;9.158;2023-03-01T02:33:51;34.70;;;12.67;;
20758;SDS011;10539;53.686;9.158;2023-03-01T02:36:19;30.43;;;13.17;;
20758;SDS011;10539;53.686;9.158;2023-03-01T02:38:52;34.17;;;13.87;;
20758;SDS011;10539;53.686;9.158;2023-03-01T02:41:21;27.40;;;13.23;;
20758;SDS011;10539;53.686;9.158;2023-03-01T02:43:48;32.90;;;13.27;;
20758;SDS011;10539;53.686;9.158;2023-03-01T02:46:24;24.67;;;11.93;;
20758;SDS011;10539;53.686;9.158;2023-03-01T02:48:51;28.40;;;11.83;;
20758;SDS011;10539;53.686;9.158;2023-03-01T02:51:24;26.17;;;12.20;;
20758;SDS011;10539;53.686;9.158;2023-03-01T02:56:48;28.87;;;12.03;;
20758;SDS011;10539;53.686;9.158;2023-03-01T02:59:16;25.97;;;11.27;;
20758;SDS011;10539;53.686;9.158;2023-03-01T03:01:45;22.70;;;10.90;;
20758;SDS011;10539;53.686;9.158;2023-03-01T03:04:13;26.27;;;11.90;;
20758;SDS011;10539;53.686;9.158;2023-03-01T03:06:43;25.63;;;11.73;;
20758;SDS011;10539;53.686;9.158;2023-03-01T03:09:09;25.50;;;12.03;;
20758;SDS011;10539;53.686;9.158;2023-03-01T03:11:36;28.10;;;11.77;;
20758;SDS011;10539;53.686;9.158;2023-03-01T03:14:04;24.83;;;12.90;;
20758;SDS011;10539;53.686;9.158;2023-03-01T03:16:30;25.80;;;12.07;;
20758;SDS011;10539;53.686;9.158;2023-03-01T03:18:55;24.10;;;13.57;;
20758;SDS011;10539;53.686;9.158;2023-03-01T03:21:33;26.47;;;12.27;;
20758;SDS011;10539;53.686;9.158;2023-03-01T03:23:59;21.67;;;11.23;;
20758;SDS011;10539;53.686;9.158;2023-03-01T03:26:25;26.03;;;11.67;;
20758;SDS011;10539;53.686;9.158;2023-03-01T03:28:51;23.77;;;10.77;;
20758;SDS011;10539;53.686;9.158;2023-03-01T03:31:17;22.67;;;11.27;;
20758;SDS011;10539;53.686;9.158;2023-03-01T03:33:43;25.43;;;11.37;;
20758;SDS011;10539;53.686;9.158;2023-03-01T03:36:08;24.27;;;11.47;;
20758;SDS011;10539;53.686;9.158;2023-03-01T03:38:38;23.20;;;11.27;;
20758;SDS011;10539;53.686;9.158;2023-03-01T03:41:06;25.60;;;12.30;;
20758;SDS011;10539;53.686;9.158;2023-03-01T03:43:34;25.90;;;11.27;;
20758;SDS011;10539;53.686;9.158;2023-03-01T03:46:01;25.33;;;11.80;;
20758;SDS011;10539;53.686;9.158;2023-03-01T03:48:32;24.83;;;11.87;;
20758;SDS011;10539;53.686;9.158;2023-03-01T03:50:59;21.47;;;11.77;;
20758;SDS011;10539;53.686;9.158;2023-03-01T03:53:26;25.07;;;12.20;;
20758;SDS011;10539;53.686;9.158;2023-03-01T03:55:53;26.90;;;12.03;;
20758;SDS011;10539;53.686;9.158;2023-03-01T03:58:19;25.43;;;13.10;;
20758;SDS011;10539;53.686;9.158;2023-03-01T04:00:48;24.80;;;12.43;;
20758;SDS011;10539;53.686;9.158;2023-03-01T04:03:16;22.07;;;12.10;;
20758;SDS011;10539;53.686;9.158;2023-03-01T04:05:44;21.83;;;11.23;;
20758;SDS011;10539;53.686;9.158;2023-03-01T04:08:10;19.77;;;10.27;;
20758;SDS011;10539;53.686;9.158;2023-03-01T04:10:37;24.00;;;11.07;;
20758;SDS011;10539;53.686;9.158;2023-03-01T04:13:04;21.80;;;10.83;;
20758;SDS011;10539;53.686;9.158;2023-03-01T04:15:31;22.10;;;10.87;;
20758;SDS011;10539;53.686;9.158;2023-03-01T04:17:58;24.63;;;11.53;;
20758;SDS011;10539;53.686;9.158;2023-03-01T04:20:25;19.30;;;10.73;;
20758;SDS011;10539;53.686;9.158;2023-03-01T04:23:04;17.47;;;9.73;;
20758;SDS011;10539;53.686;9.158;2023-03-01T04:25:54;19.93;;;9.47;;
20758;SDS011;10539;53.686;9.158;2023-03-01T04:28:27;16.77;;;9.70;;
20758;SDS011;10539;53.686;9.158;2023-03-01T04:31:01;17.83;;;9.33;;
20758;SDS011;10539;53.686;9.158;2023-03-01T04:33:42;17.40;;;8.73;;
20758;SDS011;10539;53.686;9.158;2023-03-01T04:36:09;15.23;;;8.30;;
20758;SDS011;10539;53.686;9.158;2023-03-01T04:38:36;18.27;;;8.83;;
20758;SDS011;10539;53.686;9.158;2023-03-01T04:41:04;17.07;;;8.67;;
20758;SDS011;10539;53.686;9.158;2023-03-01T04:43:34;19.77;;;10.10;;
20758;SDS011;10539;53.686;9.158;2023-03-01T04:46:01;23.50;;;11.10;;
20758;SDS011;10539;53.686;9.158;2023-03-01T04:48:34;22.03;;;10.60;;
20758;SDS011;10539;53.686;9.158;2023-03-01T04:51:01;21.90;;;10.80;;
20758;SDS011;10539;53.686;9.158;2023-03-01T04:53:27;21.23;;;10.70;;
20758;SDS011;10539;53.686;9.158;2023-03-01T04:55:54;21.17;;;11.30;;
20758;SDS011;10539;53.686;9.158;2023-03-01T04:58:22;20.87;;;11.30;;
20758;SDS011;10539;53.686;9.158;2023-03-01T05:00:49;24.93;;;12.40;;
20758;SDS011;10539;53.686;9.158;2023-03-01T05:03:15;25.43;;;12.20;;
20758;SDS011;10539;53.686;9.158;2023-03-01T05:05:43;24.07;;;12.00;;
20758;SDS011;10539;53.686;9.158;2023-03-01T05:08:11;26.20;;;12.33;;
20758;SDS011;10539;53.686;9.158;2023-03-01T05:10:43;22.27;;;10.73;;
20758;SDS011;10539;53.686;9.158;2023-03-01T05:13:11;20.17;;;10.67;;
20758;SDS011;10539;53.686;9.158;2023-03-01T05:15:38;21.33;;;10.67;;
20758;SDS011;10539;53.686;9.158;2023-03-01T05:18:04;25.37;;;11.20;;
20758;SDS011;10539;53.686;9.158;2023-03-01T05:20:36;18.57;;;9.93;;
20758;SDS011;10539;53.686;9.158;2023-03-01T05:23:02;23.03;;;9.50;;
20758;SDS011;10539;53.686;9.158;2023-03-01T05:25:30;22.40;;;11.50;;
20758;SDS011;10539;53.686;9.158;2023-03-01T05:28:02;23.73;;;11.23;;
20758;SDS011;10539;53.686;9.158;2023-03-01T05:30:32;24.33;;;11.97;;
20758;SDS011;10539;53.686;9.158;2023-03-01T05:32:59;29.07;;;12.23;;
20758;SDS011;10539;53.686;9.158;2023-03-01T05:35:25;24.57;;;11.90;;
20758;SDS011;10539;53.686;9.158;2023-03-01T05:37:51;28.43;;;13.37;;
20758;SDS011;10539;53.686;9.158;2023-03-01T05:40:21;25.80;;;12.27;;
20758;SDS011;10539;53.686;9.158;2023-03-01T05:42:49;29.23;;;13.30;;
20758;SDS011;10539;53.686;9.158;2023-03-01T05:45:20;28.27;;;12.70;;
20758;SDS011;10539;53.686;9.158;2023-03-01T05:47:47;27.60;;;12.17;;
20758;SDS011;10539;53.686;9.158;2023-03-01T05:52:49;24.43;;;12.50;;
20758;SDS011;10539;53.686;9.158;2023-03-01T05:55:16;27.67;;;12.27;;
20758;SDS011;10539;53.686;9.158;2023-03-01T05:57:44;26.83;;;13.30;;
20758;SDS011;10539;53.686;9.158;2023-03-01T06:00:11;26.90;;;13.80;;
20758;SDS011;10539;53.686;9.158;2023-03-01T06:02:39;29.83;;;13.63;;
20758;SDS011;10539;53.686;9.158;2023-03-01T06:05:05;27.90;;;14.17;;
20758;SDS011;10539;53.686;9.158;2023-03-01T06:07:33;28.40;;;14.03;;
20758;SDS011;10539;53.686;9.158;2023-03-01T06:09:58;29.13;;;13.97;;
20758;SDS011;10539;53.686;9.158;2023-03-01T06:12:24;30.53;;;14.73;;
20758;SDS011;10539;53.686;9.158;2023-03-01T06:14:50;30.83;;;16.00;;
20758;SDS011;10539;53.686;9.158;2023-03-01T06:17:16;30.50;;;15.40;;
20758;SDS011;10539;53.686;9.158;2023-03-01T06:19:41;28.73;;;13.57;;
20758;SDS011;10539;53.686;9.158;2023-03-01T06:22:07;30.23;;;14.93;;
20758;SDS011;10539;53.686;9.158;2023-03-01T06:24:34;24.93;;;13.13;;
20758;SDS011;10539;53.686;9.158;2023-03-01T06:26:59;27.87;;;14.30;;
20758;SDS011;10539;53.686;9.158;2023-03-01T06:29:25;36.27;;;15.17;;
20758;SDS011;10539;53.686;9.158;2023-03-01T06:31:51;31.10;;;14.10;;
20758;SDS011;10539;53.686;9.158;2023-03-01T06:34:16;30.97;;;13.50;;
20758;SDS011;10539;53.686;9.158;2023-03-01T06:36:42;22.90;;;12.07;;
20758;SDS011;10539;53.686;9.158;2023-03-01T06:39:08;20.03;;;10.57;;
20758;SDS011;10539;53.686;9.158;2023-03-01T06:41:34;16.70;;;9.83;;
20758;SDS011;10539;53.686;9.158;2023-03-01T06:43:59;18.37;;;9.93;;
20758;SDS011;10539;53.686;9.158;2023-03-01T06:46:26;26.00;;;10.77;;
20758;SDS011;10539;53.686;9.158;2023-03-01T06:48:51;37.90;;;12.90;;
20758;SDS011;10539;53.686;9.158;2023-03-01T06:51:17;54.87;;;14.60;;
20758;SDS011;10539;53.686;9.158;2023-03-01T06:53:43;73.03;;;15.73;;
20758;SDS011;10539;53.686;9.158;2023-03-01T06:56:10;73.60;;;16.20;;
20758;SDS011;10539;53.686;9.158;2023-03-01T06:58:36;86.23;;;16.77;;
20758;SDS011;10539;53.686;9.158;2023-03-01T07:01:05;81.70;;;17.97;;
20758;SDS011;10539;53.686;9.158;2023-03-01T07:03:34;89.63;;;16.73;;
20758;SDS011;10539;53.686;9.158;2023-03-01T07:05:59;88.33;;;17.00;;
20758;SDS011;10539;53.686;9.158;2023-03-01T07:08:25;92.77;;;16.90;;
20758;SDS011;10539;53.686;9.158;2023-03-01T07:10:58;118.23;;;17.90;;
20758;SDS011;10539;53.686;9.158;2023-03-01T07:13:24;136.37;;;18.57;;
20758;SDS011;10539;53.686;9.158;2023-03-01T07:15:50;114.13;;;16.87;;
20758;SDS011;10539;53.686;9.158;2023-03-01T07:18:15;97.47;;;17.27;;
20758;SDS011;10539;53.686;9.158;2023-03-01T07:20:41;113.63;;;19.13;;
20758;SDS011;10539;53.686;9.158;2023-03-01T07:23:07;97.73;;;17.73;;
20758;SDS011;10539;53.686;9.158;2023-03-01T07:25:33;118.90;;;19.37;;
20758;SDS011;10539;53.686;9.158;2023-03-01T07:27:58;165.67;;;22.27;;
20758;SDS011;10539;53.686;9.158;2023-03-01T07:30:25;204.83;;;23.67;;
20758;SDS011;10539;53.686;9.158;2023-03-01T07:32:52;257.10;;;25.23;;
20758;SDS011;10539;53.686;9.158;2023-03-01T07:35:18;134.30;;;22.10;;
20758;SDS011;10539;53.686;9.158;2023-03-01T07:37:44;116.40;;;23.00;;
20758;SDS011;10539;53.686;9.158;2023-03-01T07:40:10;322.10;;;27.40;;
20758;SDS011;10539;53.686;9.158;2023-03-01T07:42:36;282.77;;;27.47;;
20758;SDS011;10539;53.686;9.158;2023-03-01T07:45:03;130.13;;;23.80;;
20758;SDS011;10539;53.686;9.158;2023-03-01T07:47:30;143.73;;;22.20;;
20758;SDS011;10539;53.686;9.158;2023-03-01T07:49:56;118.70;;;22.07;;
20758;SDS011;10539;53.686;9.158;2023-03-01T07:52:21;141.50;;;22.13;;
20758;SDS011;10539;53.686;9.158;2023-03-01T07:54:47;109.77;;;21.23;;
20758;SDS011;10539;53.686;9.158;2023-03-01T07:57:13;95.90;;;22.37;;
20758;SDS011;10539;53.686;9.158;2023-03-01T07:59:39;120.47;;;23.10;;
20758;SDS011;10539;53.686;9.158;2023-03-01T08:02:05;126.60;;;20.50;;
20758;SDS011;10539;53.686;9.158;2023-03-01T08:04:31;123.53;;;21.47;;
20758;SDS011;10539;53.686;9.158;2023-03-01T08:06:58;116.47;;;22.70;;
20758;SDS011;10539;53.686;9.158;2023-03-01T08:09:24;117.00;;;22.60;;
20758;SDS011;10539;53.686;9.158;2023-03-01T08:11:50;101.30;;;23.07;;
20758;SDS011;10539;53.686;9.158;2023-03-01T08:14:16;87.53;;;23.00;;
20758;SDS011;10539;53.686;9.158;2023-03-01T08:16:41;75.87;;;22.70;;
20758;SDS011;10539;53.686;9.158;2023-03-01T08:19:08;65.00;;;21.57;;
20758;SDS011;10539;53.686;9.158;2023-03-01T08:21:37;56.53;;;22.00;;
20758;SDS011;10539;53.686;9.158;2023-03-01T08:24:03;57.10;;;21.23;;
20758;SDS011;10539;53.686;9.158;2023-03-01T08:26:31;65.13;;;23.23;;
20758;SDS011;10539;53.686;9.158;2023-03-01T08:28:57;89.53;;;26.30;;
20758;SDS011;10539;53.686;9.158;2023-03-01T08:31:42;76.67;;;25.60;;
20758;SDS011;10539;53.686;9.158;2023-03-01T08:34:09;62.10;;;21.60;;
20758;SDS011;10539;53.686;9.158;2023-03-01T08:36:38;60.90;;;23.60;;
20758;SDS011;10539;53.686;9.158;2023-03-01T08:39:05;79.23;;;24.47;;
20758;SDS011;10539;53.686;9.158;2023-03-01T08:41:32;64.17;;;22.27;;
20758;SDS011;10539;53.686;9.158;2023-03-01T08:43:58;59.17;;;23.37;;
20758;SDS011;10539;53.686;9.158;2023-03-01T08:46:25;49.37;;;19.47;;
20758;SDS011;10539;53.686;9.158;2023-03-01T08:48:56;55.70;;;21.80;;
20758;SDS011;10539;53.686;9.158;2023-03-01T08:51:22;62.87;;;22.17;;
20758;SDS011;10539;53.686;9.158;2023-03-01T08:53:49;59.57;;;22.67;;
20758;SDS011;10539;53.686;9.158;2023-03-01T08:56:15;52.43;;;20.17;;
20758;SDS011;10539;53.686;9.158;2023-03-01T08:58:46;58.47;;;21.80;;
20758;SDS011;10539;53.686;9.158;2023-03-01T09:01:15;58.10;;;21.40;;
20758;SDS011;10539;53.686;9.158;2023-03-01T09:03:43;57.30;;;20.53;;
20758;SDS011;10539;53.686;9.158;2023-03-01T09:06:09;63.30;;;22.10;;
20758;SDS011;10539;53.686;9.158;2023-03-01T09:08:36;64.20;;;22.93;;
20758;SDS011;10539;53.686;9.158;2023-03-01T09:11:04;65.93;;;23.00;;
20758;SDS011;10539;53.686;9.158;2023-03-01T09:13:31;61.27;;;21.53;;
20758;SDS011;10539;53.686;9.158;2023-03-01T09:15:58;57.07;;;21.07;;
20758;SDS011;10539;53.686;9.158;2023-03-01T09:18:25;55.23;;;21.13;;
20758;SDS011;10539;53.686;9.158;2023-03-01T09:20:51;59.87;;;22.07;;
20758;SDS011;10539;53.686;9.158;2023-03-01T09:23:17;57.40;;;20.60;;
20758;SDS011;10539;53.686;9.158;2023-03-01T09:25:42;52.80;;;21.07;;
20758;SDS011;10539;53.686;9.158;2023-03-01T09:28:08;58.80;;;22.47;;
20758;SDS011;10539;53.686;9.158;2023-03-01T09:30:36;53.80;;;23.20;;
20758;SDS011;10539;53.686;9.158;2023-03-01T09:33:01;54.90;;;23.03;;
20758;SDS011;10539;53.686;9.158;2023-03-01T09:35:27;50.23;;;21.80;;
20758;SDS011;10539;53.686;9.158;2023-03-01T09:37:53;52.07;;;21.47;;
20758;SDS011;10539;53.686;9.158;2023-03-01T09:40:20;53.40;;;21.80;;
20758;SDS011;10539;53.686;9.158;2023-03-01T09:45:33;50.63;;;20.37;;
20758;SDS011;10539;53.686;9.158;2023-03-01T09:48:00;48.77;;;19.30;;
20758;SDS011;10539;53.686;9.158;2023-03-01T09:50:32;42.63;;;18.10;;
20758;SDS011;10539;53.686;9.158;2023-03-01T09:53:02;42.23;;;17.23;;
20758;SDS011;10539;53.686;9.158;2023-03-01T09:58:23;35.23;;;14.77;;
20758;SDS011;10539;53.686;9.158;2023-03-01T10:00:57;43.53;;;17.23;;
20758;SDS011;10539;53.686;9.158;2023-03-01T10:03:43;46.33;;;18.57;;
20758;SDS011;10539;53.686;9.158;2023-03-01T10:06:19;49.63;;;19.17;;
20758;SDS011;10539;53.686;9.158;2023-03-01T10:08:55;44.43;;;19.23;;
20758;SDS011;10539;53.686;9.158;2023-03-01T10:14:00;48.27;;;18.60;;
20758;SDS011;10539;53.686;9.158;2023-03-01T10:16:51;49.03;;;20.03;;
20758;SDS011;10539;53.686;9.158;2023-03-01T10:19:44;48.17;;;19.07;;
20758;SDS011;10539;53.686;9.158;2023-03-01T10:22:21;42.53;;;17.13;;
20758;SDS011;10539;53.686;9.158;2023-03-01T10:24:49;45.90;;;19.07;;
20758;SDS011;10539;53.686;9.158;2023-03-01T10:27:18;40.40;;;19.93;;
20758;SDS011;10539;53.686;9.158;2023-03-01T10:29:55;44.73;;;18.07;;
20758;SDS011;10539;53.686;9.158;2023-03-01T10:32:26;49.50;;;19.13;;
20758;SDS011;10539;53.686;9.158;2023-03-01T10:34:52;44.53;;;18.70;;
20758;SDS011;10539;53.686;9.158;2023-03-01T10:37:19;44.63;;;19.83;;
20758;SDS011;10539;53.686;9.158;2023-03-01T10:40:04;41.47;;;19.53;;
20758;SDS011;10539;53.686;9.158;2023-03-01T10:45:27;41.50;;;18.27;;
20758;SDS011;10539;53.686;9.158;2023-03-01T10:50:35;39.97;;;17.20;;
20758;SDS011;10539;53.686;9.158;2023-03-01T10:53:03;42.53;;;18.77;;
20758;SDS011;10539;53.686;9.158;2023-03-01T10:55:31;41.90;;;17.27;;
20758;SDS011;10539;53.686;9.158;2023-03-01T10:58:21;41.40;;;16.60;;
20758;SDS011;10539;53.686;9.158;2023-03-01T11:00:51;43.20;;;18.50;;
20758;SDS011;10539;53.686;9.158;2023-03-01T11:03:28;45.35;;;23.25;;
20758;SDS011;10539;53.686;9.158;2023-03-01T11:16:46;37.83;;;16.13;;
20758;SDS011;10539;53.686;9.158;2023-03-01T11:19:19;36.30;;;16.03;;
20758;SDS011;10539;53.686;9.158;2023-03-01T11:21:57;37.00;;;17.77;;
20758;SDS011;10539;53.686;9.158;2023-03-01T11:24:30;37.03;;;17.63;;
20758;SDS011;10539;53.686;9.158;2023-03-01T11:27:24;33.80;;;16.87;;
20758;SDS011;10539;53.686;9.158;2023-03-01T11:29:57;31.87;;;15.40;;
20758;SDS011;10539;53.686;9.158;2023-03-01T11:32:45;26.23;;;13.37;;
20758;SDS011;10539;53.686;9.158;2023-03-01T11:35:30;31.33;;;15.77;;
20758;SDS011;10539;53.686;9.158;2023-03-01T11:40:32;28.83;;;15.97;;
20758;SDS011;10539;53.686;9.158;2023-03-01T11:43:23;28.50;;;13.47;;
20758;SDS011;10539;53.686;9.158;2023-03-01T11:48:48;31.43;;;15.93;;
20758;SDS011;10539;53.686;9.158;2023-03-01T12:03:25;27.13;;;15.30;;
20758;SDS011;10539;53.686;9.158;2023-03-01T12:08:34;28.87;;;15.37;;
20758;SDS011;10539;53.686;9.158;2023-03-01T12:11:10;28.90;;;16.00;;
20758;SDS011;10539;53.686;9.158;2023-03-01T12:21:42;29.17;;;15.27;;
20758;SDS011;10539;53.686;9.158;2023-03-01T12:24:35;24.60;;;14.20;;
20758;SDS011;10539;53.686;9.158;2023-03-01T12:37:54;25.27;;;14.80;;
20758;SDS011;10539;53.686;9.158;2023-03-01T12:43:48;27.30;;;15.43;;
20758;SDS011;10539;53.686;9.158;2023-03-01T12:49:27;25.67;;;14.10;;
20758;SDS011;10539;53.686;9.158;2023-03-01T12:54:41;36.90;;;16.73;;
20758;SDS011;10539;53.686;9.158;2023-03-01T12:57:26;26.57;;;14.47;;
20758;SDS011;10539;53.686;9.158;2023-03-01T13:06:07;24.20;;;13.93;;
20758;SDS011;10539;53.686;9.158;2023-03-01T13:09:14;26.90;;;13.43;;
20758;SDS011;10539;53.686;9.158;2023-03-01T13:11:44;24.17;;;12.10;;
20758;SDS011;10539;53.686;9.158;2023-03-01T13:16:53;24.07;;;13.23;;
20758;SDS011;10539;53.686;9.158;2023-03-01T13:19:29;23.13;;;12.93;;
20758;SDS011;10539;53.686;9.158;2023-03-01T13:21:56;21.87;;;11.70;;
20758;SDS011;10539;53.686;9.158;2023-03-01T13:24:29;24.60;;;12.90;;
20758;SDS011;10539;53.686;9.158;2023-03-01T13:35:00;22.93;;;10.80;;
20758;SDS011;10539;53.686;9.158;2023-03-01T13:37:47;18.43;;;9.33;;
20758;SDS011;10539;53.686;9.158;2023-03-01T13:42:44;23.87;;;10.80;;
20758;SDS011;10539;53.686;9.158;2023-03-01T13:48:15;21.73;;;9.83;;
20758;SDS011;10539;53.686;9.158;2023-03-01T13:50:50;19.70;;;9.33;;
20758;SDS011;10539;53.686;9.158;2023-03-01T13:53:21;20.33;;;9.57;;
20758;SDS011;10539;53.686;9.158;2023-03-01T13:55:51;20.43;;;8.53;;
20758;SDS011;10539;53.686;9.158;2023-03-01T13:58:28;22.83;;;10.27;;
20758;SDS011;10539;53.686;9.158;2023-03-01T14:01:02;22.30;;;10.93;;
20758;SDS011;10539;53.686;9.158;2023-03-01T14:03:30;20.07;;;9.50;;
20758;SDS011;10539;53.686;9.158;2023-03-01T14:08:35;19.20;;;8.70;;
20758;SDS011;10539;53.686;9.158;2023-03-01T14:11:13;20.73;;;9.57;;
20758;SDS011;10539;53.686;9.158;2023-03-01T14:19:56;19.37;;;9.27;;
20758;SDS011;10539;53.686;9.158;2023-03-01T14:22:24;24.87;;;8.83;;
20758;SDS011;10539;53.686;9.158;2023-03-01T14:25:01;19.63;;;8.70;;
20758;SDS011;10539;53.686;9.158;2023-03-01T14:27:39;21.77;;;9.70;;
20758;SDS011;10539;53.686;9.158;2023-03-01T14:30:21;17.67;;;8.27;;
20758;SDS011;10539;53.686;9.158;2023-03-01T14:35:25;16.80;;;7.50;;
20758;SDS011;10539;53.686;9.158;2023-03-01T14:37:53;19.43;;;7.43;;
20758;SDS011;10539;53.686;9.158;2023-03-01T14:40:23;20.03;;;8.97;;
20758;SDS011;10539;53.686;9.158;2023-03-01T14:42:49;22.03;;;10.17;;
20758;SDS011;10539;53.686;9.158;2023-03-01T14:45:15;21.40;;;9.13;;
20758;SDS011;10539;53.686;9.158;2023-03-01T14:47:43;22.87;;;8.63;;
20758;SDS011;10539;53.686;9.158;2023-03-01T14:50:19;21.13;;;9.30;;
20758;SDS011;10539;53.686;9.158;2023-03-01T14:52:50;20.93;;;8.47;;
20758;SDS011;10539;53.686;9.158;2023-03-01T14:55:21;18.53;;;8.10;;
20758;SDS011;10539;53.686;9.158;2023-03-01T14:57:52;21.07;;;8.60;;
20758;SDS011;10539;53.686;9.158;2023-03-01T15:00:22;23.73;;;8.40;;
20758;SDS011;10539;53.686;9.158;2023-03-01T15:02:51;18.80;;;7.53;;
20758;SDS011;10539;53.686;9.158;2023-03-01T15:05:23;17.20;;;6.83;;
20758;SDS011;10539;53.686;9.158;2023-03-01T15:07:57;16.77;;;7.40;;
20758;SDS011;10539;53.686;9.158;2023-03-01T15:10:29;18.17;;;7.77;;
20758;SDS011;10539;53.686;9.158;2023-03-01T15:13:09;22.53;;;8.60;;
20758;SDS011;10539;53.686;9.158;2023-03-01T15:18:37;20.97;;;8.53;;
20758;SDS011;10539;53.686;9.158;2023-03-01T15:21:23;20.63;;;7.90;;
20758;SDS011;10539;53.686;9.158;2023-03-01T15:24:16;23.83;;;9.90;;
20758;SDS011;10539;53.686;9.158;2023-03-01T15:26:55;25.03;;;11.00;;
20758;SDS011;10539;53.686;9.158;2023-03-01T15:29:23;26.50;;;11.80;;
20758;SDS011;10539;53.686;9.158;2023-03-01T15:31:55;25.77;;;11.50;;
20758;SDS011;10539;53.686;9.158;2023-03-01T15:34:32;31.10;;;12.53;;
20758;SDS011;10539;53.686;9.158;2023-03-01T15:37:00;42.03;;;18.60;;
20758;SDS011;10539;53.686;9.158;2023-03-01T15:39:40;41.20;;;16.50;;
20758;SDS011;10539;53.686;9.158;2023-03-01T15:42:17;49.93;;;19.63;;
20758;SDS011;10539;53.686;9.158;2023-03-01T15:45:09;56.30;;;24.53;;
20758;SDS011;10539;53.686;9.158;2023-03-01T15:47:35;61.60;;;26.60;;
20758;SDS011;10539;53.686;9.158;2023-03-01T15:50:04;70.03;;;27.87;;
20758;SDS011;10539;53.686;9.158;2023-03-01T15:52:34;65.47;;;27.30;;
20758;SDS011;10539;53.686;9.158;2023-03-01T15:55:05;76.33;;;27.93;;
20758;SDS011;10539;53.686;9.158;2023-03-01T15:57:39;80.03;;;30.23;;
20758;SDS011;10539;53.686;9.158;2023-03-01T16:00:05;88.73;;;32.50;;
20758;SDS011;10539;53.686;9.158;2023-03-01T16:02:36;81.30;;;30.93;;
20758;SDS011;10539;53.686;9.158;2023-03-01T16:05:03;87.20;;;32.23;;
20758;SDS011;10539;53.686;9.158;2023-03-01T16:07:29;74.17;;;28.40;;
20758;SDS011;10539;53.686;9.158;2023-03-01T16:09:56;77.53;;;27.87;;
20758;SDS011;10539;53.686;9.158;2023-03-01T16:12:22;77.53;;;27.83;;
20758;SDS011;10539;53.686;9.158;2023-03-01T16:14:49;81.97;;;28.67;;
20758;SDS011;10539;53.686;9.158;2023-03-01T16:17:15;65.10;;;22.73;;
20758;SDS011;10539;53.686;9.158;2023-03-01T16:19:41;85.03;;;30.77;;
20758;SDS011;10539;53.686;9.158;2023-03-01T16:22:08;80.17;;;30.90;;
20758;SDS011;10539;53.686;9.158;2023-03-01T16:24:35;68.90;;;27.67;;
20758;SDS011;10539;53.686;9.158;2023-03-01T16:27:02;71.03;;;28.40;;
20758;SDS011;10539;53.686;9.158;2023-03-01T16:29:29;56.47;;;22.50;;
20758;SDS011;10539;53.686;9.158;2023-03-01T16:31:55;42.70;;;16.27;;
20758;SDS011;10539;53.686;9.158;2023-03-01T16:34:20;41.73;;;17.57;;
20758;SDS011;10539;53.686;9.158;2023-03-01T16:36:47;42.07;;;18.67;;
20758;SDS011;10539;53.686;9.158;2023-03-01T16:39:12;36.73;;;15.77;;
20758;SDS011;10539;53.686;9.158;2023-03-01T16:41:38;33.90;;;14.53;;